Time;durP1;ratioP1;P1;durP2;ratioP2;P2;SDS_P1;SDS_P2;PMS_P1;PMS_P2;Temp;Humidity;BMP_temperature;BMP_pressure;BME280_temperature;BME280_humidity;BME280_pressure;Samples;Min_cycle;Max_cycle;Signal;HPM_P1;HPM_P2
2022/08/07 00:03:40;;;;;;;2.60;1.63;;;27.70;43.70;;;;;;10395174;28;20110;-31
2022/08/07 00:08:43;;;;;;;3.03;1.85;;;27.70;43.70;;;;;;10392660;28;20045;-28
2022/08/07 00:13:46;;;;;;;4.75;1.38;;;27.70;44.40;;;;;;10393121;28;20075;-34
2022/08/07 00:18:48;;;;;;;2.63;1.80;;;27.60;43.70;;;;;;10393882;28;20255;-27
2022/08/07 00:23:52;;;;;;;4.78;1.60;;;27.60;43.90;;;;;;10396171;28;20045;-26
2022/08/07 00:28:53;;;;;;;1.85;1.42;;;27.50;43.90;;;;;;10397168;28;20047;-28
2022/08/07 00:33:55;;;;;;;1.95;1.20;;;27.50;43.80;;;;;;10397281;28;20041;-30
2022/08/07 00:38:58;;;;;;;3.45;1.60;;;27.50;43.90;;;;;;10397593;28;20141;-30
2022/08/07 00:44:00;;;;;;;1.98;1.40;;;27.40;43.90;;;;;;10394953;28;20102;-27
2022/08/07 00:49:02;;;;;;;3.10;1.83;;;27.40;44.00;;;;;;10393404;28;20124;-27
2022/08/07 00:54:06;;;;;;;2.60;1.20;;;27.40;44.30;;;;;;10395471;28;20099;-36
2022/08/07 00:59:08;;;;;;;2.25;1.27;;;27.30;44.10;;;;;;10394018;28;20052;-31
2022/08/07 01:04:10;;;;;;;1.38;1.20;;;27.30;44.10;;;;;;10393334;28;20049;-30
2022/08/07 01:09:13;;;;;;;2.20;1.17;;;27.40;44.20;;;;;;10404790;28;20136;-33
2022/08/07 01:14:15;;;;;;;1.60;1.48;;;27.40;44.20;;;;;;10402495;28;20060;-30
2022/08/07 01:19:19;;;;;;;2.30;1.27;;;27.40;44.20;;;;;;10408541;28;20045;-27
2022/08/07 01:24:23;;;;;;;1.30;1.20;;;27.30;44.10;;;;;;10408953;28;20049;-26
2022/08/07 01:29:26;;;;;;;1.30;0.88;;;27.30;44.20;;;;;;10409688;28;20448;-30
2022/08/07 01:34:31;;;;;;;1.70;1.17;;;27.20;44.20;;;;;;10408884;28;20057;-29
2022/08/07 01:39:34;;;;;;;2.03;1.20;;;27.20;44.30;;;;;;10408277;28;20044;-29
2022/08/07 01:44:36;;;;;;;2.50;1.40;;;27.20;44.40;;;;;;10409689;28;20474;-31
2022/08/07 01:49:38;;;;;;;1.35;1.08;;;27.10;45.10;;;;;;10410685;28;20072;-30
2022/08/07 01:54:43;;;;;;;3.45;1.35;;;27.10;44.60;;;;;;10409532;28;20072;-30
2022/08/07 01:59:50;;;;;;;1.88;1.17;;;27.10;44.60;;;;;;10408881;28;20136;-29
2022/08/07 02:04:58;;;;;;;1.95;1.20;;;27.10;44.70;;;;;;10406578;28;20084;-34
2022/08/07 02:10:03;;;;;;;1.23;1.05;;;27.00;44.60;;;;;;10407874;28;20076;-27
2022/08/07 02:15:07;;;;;;;1.13;0.93;;;27.00;44.70;;;;;;10406189;28;20103;-35
2022/08/07 02:20:10;;;;;;;1.90;1.27;;;27.00;44.70;;;;;;10402721;28;20037;-32
2022/08/07 02:25:16;;;;;;;3.35;1.20;;;27.00;45.00;;;;;;10403229;28;20095;-27
2022/08/07 02:30:18;;;;;;;2.28;1.10;;;26.90;44.80;;;;;;10401986;28;20095;-29
2022/08/07 02:35:21;;;;;;;2.25;1.27;;;26.90;44.90;;;;;;10400068;28;20077;-26
2022/08/07 02:40:24;;;;;;;2.05;1.20;;;26.90;45.00;;;;;;10399401;28;20088;-27
2022/08/07 02:45:30;;;;;;;1.17;1.08;;;26.80;44.90;;;;;;10400597;28;20057;-30
2022/08/07 02:50:33;;;;;;;1.75;1.40;;;26.80;45.00;;;;;;10402672;28;20069;-29
2022/08/07 02:55:42;;;;;;;1.63;1.27;;;26.80;45.00;;;;;;10397730;28;20052;-32
2022/08/07 03:00:47;;;;;;;1.35;1.25;;;26.80;45.10;;;;;;10397070;28;20458;-31
2022/08/07 03:05:50;;;;;;;1.90;1.42;;;26.70;45.00;;;;;;10397999;28;20069;-31
2022/08/07 03:10:56;;;;;;;1.30;1.10;;;26.70;45.10;;;;;;10400071;28;20087;-28
2022/08/07 03:15:58;;;;;;;2.05;1.60;;;26.70;45.10;;;;;;10401119;28;20123;-28
2022/08/07 03:21:00;;;;;;;2.13;1.08;;;26.70;45.20;;;;;;10400339;28;20041;-29
2022/08/07 03:26:05;;;;;;;1.73;1.30;;;26.70;45.20;;;;;;10400946;28;20049;-32
2022/08/07 03:31:21;;;;;;;2.13;1.40;;;26.60;45.20;;;;;;10397789;28;20462;-27
2022/08/07 03:36:26;;;;;;;1.92;1.40;;;26.60;45.20;;;;;;10398845;28;20131;-30
2022/08/07 03:41:30;;;;;;;1.85;1.60;;;26.50;45.20;;;;;;10387189;28;20502;-29
2022/08/07 03:46:33;;;;;;;2.53;1.77;;;26.50;45.30;;;;;;10399820;28;20052;-26
2022/08/07 03:51:35;;;;;;;2.55;1.50;;;26.50;45.30;;;;;;10399560;28;20688;-29
2022/08/07 03:56:40;;;;;;;3.85;1.70;;;26.50;45.30;;;;;;10400335;28;20148;-27
2022/08/07 04:01:43;;;;;;;1.45;1.35;;;26.50;45.30;;;;;;10399130;28;20478;-27
2022/08/07 04:06:46;;;;;;;2.30;1.40;;;26.40;45.30;;;;;;10399762;28;20112;-31
2022/08/07 04:11:50;;;;;;;3.53;1.90;;;26.40;45.30;;;;;;10397067;28;20148;-27
2022/08/07 04:16:52;;;;;;;1.85;1.50;;;26.30;45.30;;;;;;10398090;28;20049;-27
2022/08/07 04:21:55;;;;;;;3.53;1.58;;;26.30;45.30;;;;;;10397988;28;20081;-27
2022/08/07 04:27:01;;;;;;;4.85;1.75;;;26.40;45.50;;;;;;10390660;28;20042;-26
2022/08/07 04:32:04;;;;;;;2.30;1.63;;;26.30;45.50;;;;;;10397978;28;20124;-29
2022/08/07 04:37:06;;;;;;;2.60;1.88;;;26.30;45.50;;;;;;10396111;28;20140;-28
2022/08/07 04:42:09;;;;;;;2.85;1.63;;;26.30;45.60;;;;;;10396519;28;20533;-32
2022/08/07 04:47:16;;;;;;;2.58;1.85;;;26.40;45.70;;;;;;10394345;28;20132;-28
2022/08/07 04:52:27;;;;;;;2.47;1.70;;;26.30;45.60;;;;;;10392368;28;20053;-31
2022/08/07 04:57:32;;;;;;;;;;;26.30;45.60;;;;;;10392865;28;20128;-29
2022/08/07 05:02:45;;;;;;;2.58;1.67;;;26.20;45.50;;;;;;10391201;28;19967;-27
2022/08/07 05:07:56;;;;;;;2.15;1.50;;;26.40;45.70;;;;;;10394441;28;20084;-30
2022/08/07 05:13:08;;;;;;;4.27;1.80;;;26.20;45.50;;;;;;10395574;28;20063;-30
2022/08/07 05:18:14;;;;;;;5.32;1.75;;;26.20;45.50;;;;;;10397114;28;20052;-39
2022/08/07 05:23:19;;;;;;;4.07;1.92;;;26.30;45.50;;;;;;10393619;28;20089;-32
2022/08/07 05:28:23;;;;;;;2.45;1.77;;;26.20;45.40;;;;;;10382889;28;20581;-34
2022/08/07 05:33:26;;;;;;;2.85;1.52;;;26.30;45.40;;;;;;10392287;28;20044;-27
2022/08/07 05:38:29;;;;;;;3.20;1.73;;;26.30;45.40;;;;;;10394243;28;20065;-29
2022/08/07 05:43:34;;;;;;;2.80;1.90;;;26.30;45.40;;;;;;10383129;28;20139;-28
2022/08/07 05:48:40;;;;;;;4.13;1.98;;;26.30;45.40;;;;;;10398948;28;20142;-28
2022/08/07 05:53:42;;;;;;;3.63;2.25;;;26.30;45.50;;;;;;10405508;28;20129;-32
2022/08/07 05:58:47;;;;;;;4.63;2.05;;;26.30;45.50;;;;;;10402719;28;20140;-30
2022/08/07 06:03:53;;;;;;;7.55;3.30;;;26.40;45.60;;;;;;10404287;28;20049;-30
2022/08/07 06:08:55;;;;;;;9.35;4.10;;;26.40;45.80;;;;;;10402985;28;20079;-30
2022/08/07 06:13:59;;;;;;;8.85;3.92;;;26.40;45.80;;;;;;10394085;28;20156;-29
2022/08/07 06:19:01;;;;;;;8.23;4.05;;;26.40;45.70;;;;;;10401242;28;20081;-25
2022/08/07 06:24:04;;;;;;;15.05;4.60;;;26.40;45.70;;;;;;10401484;28;20068;-26
2022/08/07 06:29:07;;;;;;;16.50;5.90;;;26.40;45.80;;;;;;10402011;28;20068;-28
2022/08/07 06:34:09;;;;;;;11.82;4.88;;;26.50;45.80;;;;;;10395531;28;20604;-28
2022/08/07 06:39:11;;;;;;;9.48;4.00;;;26.50;45.70;;;;;;10396101;28;20068;-35
2022/08/07 06:44:15;;;;;;;6.63;3.20;;;26.50;45.50;;;;;;10398049;28;20492;-39
2022/08/07 06:49:17;;;;;;;7.15;3.10;;;26.50;45.30;;;;;;10399750;28;20050;-29
2022/08/07 06:54:21;;;;;;;8.07;2.80;;;26.60;45.20;;;;;;10398967;28;20062;-29
2022/08/07 06:59:27;;;;;;;3.67;1.85;;;26.70;44.90;;;;;;10400862;28;20776;-30
2022/08/07 07:04:30;;;;;;;3.58;2.33;;;26.80;44.80;;;;;;10400317;28;20137;-27
2022/08/07 07:09:32;;;;;;;3.47;1.70;;;26.80;44.70;;;;;;10396080;28;20042;-31
2022/08/07 07:14:41;;;;;;;3.88;1.90;;;26.80;44.50;;;;;;10399314;28;20126;-28
2022/08/07 07:19:48;;;;;;;4.35;1.55;;;26.80;44.50;;;;;;10397957;28;20103;-31
2022/08/07 07:24:51;;;;;;;2.97;1.33;;;26.80;44.50;;;;;;10392509;28;20049;-32
2022/08/07 07:29:58;;;;;;;2.90;1.67;;;26.80;44.50;;;;;;10398856;28;20140;-32
2022/08/07 07:35:03;;;;;;;2.40;1.35;;;26.80;44.40;;;;;;10398156;28;20469;-28
2022/08/07 07:40:12;;;;;;;1.63;1.40;;;26.80;44.40;;;;;;10396092;28;20729;-29
2022/08/07 07:45:18;;;;;;;2.70;1.40;;;26.80;44.30;;;;;;10397405;28;20178;-27
2022/08/07 07:50:22;;;;;;;5.43;1.17;;;26.80;44.30;;;;;;10397132;28;20812;-27
2022/08/07 07:55:27;;;;;;;4.60;1.95;;;26.80;44.30;;;;;;10375715;28;20049;-28
2022/08/07 08:00:32;;;;;;;10.80;1.50;;;26.80;44.50;;;;;;10394328;28;20045;-28
2022/08/07 08:05:37;;;;;;;6.13;1.23;;;26.80;44.80;;;;;;10390973;28;20172;-26
2022/08/07 08:10:40;;;;;;;5.68;1.65;;;26.80;44.80;;;;;;10391466;28;20072;-35
2022/08/07 08:15:46;;;;;;;6.47;1.30;;;26.80;44.70;;;;;;10395192;28;20147;-29
2022/08/07 08:20:49;;;;;;;2.65;1.10;;;26.80;44.60;;;;;;10390578;28;20053;-30
2022/08/07 08:31:17;;;;;;;2.45;1.05;;;26.80;44.50;;;;;;10366039;28;20045;-27
2022/08/07 08:36:21;;;;;;;1.63;0.95;;;26.80;44.50;;;;;;10395615;28;20089;-32
2022/08/07 08:41:31;;;;;;;2.30;0.98;;;26.80;44.50;;;;;;10390936;28;20185;-38
2022/08/07 08:46:42;;;;;;;3.15;1.30;;;26.80;44.40;;;;;;10390416;28;20462;-33
2022/08/07 08:51:51;;;;;;;;;;;26.80;44.30;;;;;;10391038;28;20049;-33
2022/08/07 08:56:55;;;;;;;3.72;1.00;;;26.80;44.30;;;;;;10395539;28;20409;-29
2022/08/07 09:02:05;;;;;;;2.55;0.98;;;26.80;44.30;;;;;;10393268;28;20129;-32
2022/08/07 09:07:15;;;;;;;1.02;0.80;;;26.80;44.20;;;;;;10395342;28;20128;-30
2022/08/07 09:12:31;;;;;;;1.52;0.80;;;26.90;44.20;;;;;;10395087;28;20095;-27
2022/08/07 09:17:46;;;;;;;2.70;0.80;;;26.90;44.20;;;;;;10388441;28;20141;-38
2022/08/07 09:22:56;;;;;;;2.58;0.80;;;26.90;44.10;;;;;;10389763;28;20116;-34
2022/08/07 09:28:03;;;;;;;1.57;0.90;;;26.90;44.00;;;;;;10405137;28;20136;-28
2022/08/07 09:33:18;;;;;;;1.48;0.70;;;27.00;44.10;;;;;;10402173;28;20052;-36
2022/08/07 09:38:28;;;;;;;2.58;1.05;;;27.00;44.10;;;;;;10396323;28;20053;-33
2022/08/07 09:43:43;;;;;;;2.15;0.93;;;27.00;43.90;;;;;;10402132;28;20544;-31
2022/08/07 09:48:57;;;;;;;3.83;1.10;;;27.00;43.90;;;;;;10396795;28;20049;-28
2022/08/07 09:54:01;;;;;;;1.70;0.90;;;27.00;43.90;;;;;;10391456;28;20072;-26
2022/08/07 09:59:24;;;;;;;1.77;0.80;;;27.10;43.90;;;;;;10393937;28;20049;-33
2022/08/07 10:04:52;;;;;;;1.77;0.80;;;27.10;43.80;;;;;;10399003;28;20446;-28
2022/08/07 10:10:09;;;;;;;1.00;0.80;;;27.20;43.80;;;;;;10389043;28;20490;-28
2022/08/07 10:15:27;;;;;;;3.83;1.10;;;27.20;43.70;;;;;;10390584;28;20045;-28
2022/08/07 10:20:43;;;;;;;2.38;1.15;;;27.20;43.60;;;;;;10400701;28;20076;-30
2022/08/07 10:25:57;;;;;;;4.03;1.13;;;27.20;43.60;;;;;;10401852;28;20052;-27
2022/08/07 10:31:14;;;;;;;2.00;1.20;;;27.30;43.60;;;;;;10399424;28;20128;-34
2022/08/07 10:36:30;;;;;;;1.27;1.10;;;27.30;43.50;;;;;;10398705;28;20398;-33
2022/08/07 10:41:35;;;;;;;1.38;1.00;;;27.40;43.60;;;;;;10392577;28;20073;-31
2022/08/07 10:46:42;;;;;;;1.95;1.15;;;27.40;43.50;;;;;;10399174;28;20049;-27
2022/08/07 10:51:54;;;;;;;1.33;1.23;;;27.40;43.50;;;;;;10392932;28;20077;-29
2022/08/07 10:57:08;;;;;;;0.98;0.93;;;27.50;43.50;;;;;;10390734;28;20120;-29
2022/08/07 11:02:18;;;;;;;3.25;1.13;;;27.50;43.50;;;;;;10398892;28;20041;-28
2022/08/07 11:07:42;;;;;;;1.60;0.93;;;27.50;43.50;;;;;;10387659;28;20041;-29
2022/08/07 11:12:52;;;;;;;1.20;1.10;;;27.60;43.50;;;;;;10390999;28;20045;-30
2022/08/07 11:18:01;;;;;;;4.13;0.98;;;27.60;43.50;;;;;;10394810;28;20053;-29
2022/08/07 11:23:18;;;;;;;1.67;1.10;;;27.70;43.30;;;;;;10387070;28;20057;-31
2022/08/07 11:28:26;;;;;;;1.90;1.10;;;27.80;43.40;;;;;;10391822;28;20045;-28
2022/08/07 11:33:41;;;;;;;2.88;1.63;;;27.80;43.30;;;;;;10389944;28;20046;-33
2022/08/07 11:38:53;;;;;;;1.77;1.00;;;27.90;43.30;;;;;;10395491;28;20056;-28
2022/08/07 11:44:03;;;;;;;2.33;1.17;;;27.90;43.20;;;;;;10397623;28;20056;-31
2022/08/07 11:49:25;;;;;;;3.30;1.70;;;28.00;43.30;;;;;;10397598;28;20548;-29
2022/08/07 11:54:38;;;;;;;6.05;1.92;;;28.00;43.30;;;;;;10397356;28;20046;-29
2022/08/07 12:00:05;;;;;;;2.85;1.65;;;28.00;43.40;;;;;;10396235;28;20041;-28
2022/08/07 12:05:16;;;;;;;6.07;2.22;;;28.10;43.50;;;;;;10397129;28;20463;-33
2022/08/07 12:10:25;;;;;;;5.07;2.17;;;28.10;43.60;;;;;;10388539;28;20221;-27
2022/08/07 12:15:32;;;;;;;4.32;2.30;;;28.10;43.70;;;;;;10395581;28;20067;-34
2022/08/07 12:20:37;;;;;;;10.50;3.28;;;28.20;43.70;;;;;;10395407;28;20069;-32
2022/08/07 12:25:55;;;;;;;6.30;3.03;;;28.20;43.80;;;;;;10396342;28;20049;-35
2022/08/07 12:31:03;;;;;;;6.95;2.00;;;28.20;43.80;;;;;;10394231;28;20260;-29
2022/08/07 12:36:09;;;;;;;15.20;4.68;;;28.30;43.80;;;;;;10385953;28;20623;-26
2022/08/07 12:41:13;;;;;;;9.35;3.67;;;28.30;43.80;;;;;;10385045;28;20057;-28
2022/08/07 12:46:24;;;;;;;5.85;2.38;;;28.30;43.70;;;;;;10394730;28;20103;-34
2022/08/07 12:51:28;;;;;;;6.68;2.95;;;28.40;43.60;;;;;;10393110;28;20049;-31
2022/08/07 12:56:34;;;;;;;4.82;1.73;;;28.40;43.50;;;;;;10378826;28;20207;-29
2022/08/07 13:01:52;;;;;;;5.03;1.60;;;28.40;43.30;;;;;;10386384;28;20052;-31
2022/08/07 13:07:14;;;;;;;2.30;1.50;;;28.40;43.40;;;;;;10393833;28;20046;-26
2022/08/07 13:12:25;;;;;;;7.28;1.50;;;28.40;43.20;;;;;;10392181;28;20057;-27
2022/08/07 13:17:33;;;;;;;2.67;1.40;;;28.50;43.00;;;;;;10393008;28;20099;-29
2022/08/07 13:22:40;;;;;;;2.25;1.20;;;28.50;42.90;;;;;;10383051;28;20119;-36
2022/08/07 13:27:50;;;;;;;4.88;1.20;;;28.50;43.10;;;;;;10389778;28;20042;-27
2022/08/07 13:32:58;;;;;;;7.40;1.13;;;28.70;43.40;;;;;;10386449;28;20042;-27
2022/08/07 13:38:11;;;;;;;2.17;1.10;;;28.80;43.90;;;;;;10393227;28;20083;-30
2022/08/07 13:43:17;;;;;;;6.43;1.77;;;28.60;44.30;;;;;;10396364;28;20057;-29
2022/08/07 13:48:22;;;;;;;1.75;1.10;;;28.80;44.10;;;;;;10386457;28;20073;-29
2022/08/07 13:53:34;;;;;;;2.75;1.33;;;28.90;44.20;;;;;;10388377;28;20087;-26
2022/08/07 14:04:09;;;;;;;1.95;0.90;;;29.10;43.90;;;;;;10394120;28;20034;-33
2022/08/07 14:09:19;;;;;;;6.18;1.65;;;29.10;44.50;;;;;;10395419;28;20466;-29
2022/08/07 14:14:31;;;;;;;14.07;3.72;;;29.20;47.50;;;;;;10393610;28;20084;-28
2022/08/07 14:19:36;;;;;;;4.38;1.60;;;29.40;48.50;;;;;;10392453;28;20049;-26
2022/08/07 14:24:41;;;;;;;11.15;4.53;;;29.30;46.00;;;;;;10401787;28;20046;-30
2022/08/07 14:29:52;;;;;;;13.00;4.80;;;29.40;47.00;;;;;;10402099;28;20445;-28
2022/08/07 14:34:54;;;;;;;3.22;1.65;;;29.40;46.20;;;;;;10394780;28;20057;-27
2022/08/07 14:39:57;;;;;;;11.18;3.55;;;29.40;46.10;;;;;;10401447;28;20103;-30
2022/08/07 14:45:04;;;;;;;11.80;5.55;;;29.50;45.70;;;;;;10396828;28;20111;-32
2022/08/07 14:50:09;;;;;;;9.63;4.63;;;29.50;45.90;;;;;;10402461;28;20087;-30
2022/08/07 14:55:12;;;;;;;6.07;2.38;;;29.50;46.20;;;;;;10397722;28;20045;-30
2022/08/07 15:00:18;;;;;;;9.85;3.50;;;29.60;45.90;;;;;;10399222;28;20132;-31
2022/08/07 15:05:22;;;;;;;6.78;2.10;;;29.60;46.30;;;;;;10397910;28;20386;-29
2022/08/07 15:10:26;;;;;;;6.47;2.20;;;29.70;45.80;;;;;;10399463;28;20065;-27
2022/08/07 15:15:38;;;;;;;3.63;1.95;;;29.70;46.10;;;;;;10392882;28;20372;-27
2022/08/07 15:20:42;;;;;;;3.67;2.00;;;29.70;46.10;;;;;;10390402;28;20080;-33
2022/08/07 15:25:55;;;;;;;5.22;1.80;;;29.80;45.70;;;;;;10389620;28;20418;-29
2022/08/07 15:31:02;;;;;;;8.98;2.63;;;29.80;45.80;;;;;;10395304;28;20654;-28
2022/08/07 15:36:07;;;;;;;6.03;2.28;;;29.90;46.00;;;;;;10391994;28;20037;-29
2022/08/07 15:41:12;;;;;;;3.58;1.95;;;29.90;46.30;;;;;;10383147;28;20041;-26
2022/08/07 15:46:21;;;;;;;3.22;1.73;;;30.00;46.40;;;;;;10397869;28;20089;-32
2022/08/07 15:51:25;;;;;;;3.30;1.70;;;30.00;46.30;;;;;;10396943;28;20056;-37
2022/08/07 15:56:34;;;;;;;4.55;1.80;;;30.00;46.10;;;;;;10385097;28;20049;-26
2022/08/07 16:01:51;;;;;;;4.15;1.65;;;30.10;46.20;;;;;;10396677;28;20136;-33
2022/08/07 16:06:55;;;;;;;4.07;1.05;;;30.10;46.40;;;;;;10396340;28;20463;-31
2022/08/07 16:12:10;;;;;;;2.28;1.33;;;30.10;47.40;;;;;;10381931;28;20160;-34
2022/08/07 16:17:26;;;;;;;2.05;1.20;;;30.20;47.10;;;;;;10392193;28;20049;-28
2022/08/07 16:22:47;;;;;;;7.72;1.20;;;30.20;47.20;;;;;;10385684;28;20111;-36
2022/08/07 16:28:00;;;;;;;1.48;1.33;;;30.20;47.20;;;;;;10393402;28;20465;-31
2022/08/07 16:33:09;;;;;;;2.15;1.35;;;30.30;47.20;;;;;;10383171;28;20153;-32
2022/08/07 16:38:35;;;;;;;1.83;0.98;;;30.30;47.00;;;;;;10391973;28;20037;-28
2022/08/07 16:44:16;;;;;;;2.65;1.40;;;30.20;47.40;;;;;;10389033;28;20060;-32
2022/08/07 16:49:40;;;;;;;3.03;1.58;;;30.20;46.70;;;;;;10392750;28;20050;-37
2022/08/07 16:54:57;;;;;;;1.48;0.75;;;30.20;46.60;;;;;;10388567;28;20124;-33
2022/08/07 17:00:08;;;;;;;2.22;1.15;;;30.20;46.50;;;;;;10393226;28;20041;-30
2022/08/07 17:05:18;;;;;;;1.50;1.07;;;30.20;46.30;;;;;;10392217;28;20375;-27
2022/08/07 17:10:32;;;;;;;4.63;1.17;;;30.20;46.50;;;;;;10395034;28;20545;-32
2022/08/07 17:15:41;;;;;;;3.45;1.40;;;30.20;46.20;;;;;;10384910;28;20148;-35
2022/08/07 17:20:46;;;;;;;4.43;1.73;;;30.20;46.20;;;;;;10393735;28;20087;-29
2022/08/07 17:26:00;;;;;;;8.10;2.70;;;30.20;46.00;;;;;;10383499;28;20117;-31
2022/08/07 17:31:09;;;;;;;5.32;2.45;;;30.10;46.30;;;;;;10394490;28;20489;-27
2022/08/07 17:36:17;;;;;;;7.65;2.40;;;30.10;46.80;;;;;;10394408;28;20081;-29
2022/08/07 17:41:31;;;;;;;9.52;2.92;;;30.10;46.20;;;;;;10390955;28;20309;-27
2022/08/07 17:46:41;;;;;;;9.23;3.10;;;30.10;46.20;;;;;;10398884;28;20136;-32
2022/08/07 17:51:52;;;;;;;12.47;4.33;;;30.20;46.10;;;;;;10401541;28;20049;-28
2022/08/07 17:56:59;;;;;;;12.80;5.15;;;30.20;46.20;;;;;;10401236;28;20114;-33
2022/08/07 18:02:09;;;;;;;10.52;4.20;;;30.10;46.10;;;;;;10401486;28;20053;-29
2022/08/07 18:07:31;;;;;;;9.75;4.88;;;30.20;46.10;;;;;;10401620;28;20050;-31
2022/08/07 18:12:48;;;;;;;16.88;6.53;;;30.20;46.10;;;;;;10399601;28;20045;-30
2022/08/07 18:17:56;;;;;;;24.38;9.25;;;30.20;46.60;;;;;;10400710;28;20136;-29
2022/08/07 18:23:05;;;;;;;19.58;8.82;;;30.20;46.00;;;;;;10401264;28;20112;-26
2022/08/07 18:28:16;;;;;;;19.83;7.30;;;30.20;45.90;;;;;;10399823;28;20119;-34
2022/08/07 18:34:03;;;;;;;14.65;6.00;;;30.20;45.90;;;;;;10397316;28;20060;-27
2022/08/07 18:39:17;;;;;;;17.95;7.18;;;30.20;45.90;;;;;;10388241;28;20068;-33
2022/08/07 18:44:31;;;;;;;12.15;5.82;;;30.20;45.90;;;;;;10397799;28;20049;-33
2022/08/07 18:49:45;;;;;;;13.10;5.13;;;30.20;45.90;;;;;;10396832;28;20147;-28
2022/08/07 18:55:02;;;;;;;12.70;4.60;;;30.20;45.80;;;;;;10396216;28;20506;-31
2022/08/07 19:00:07;;;;;;;10.80;4.75;;;30.20;46.50;;;;;;10387148;28;20060;-31
2022/08/07 19:05:20;;;;;;;12.23;4.22;;;30.30;45.70;;;;;;10395567;28;20056;-32
2022/08/07 19:10:28;;;;;;;7.10;3.08;;;30.20;45.70;;;;;;10397110;28;20132;-27
2022/08/07 19:15:39;;;;;;;8.30;2.95;;;30.20;45.60;;;;;;10396462;28;20052;-27
2022/08/07 19:20:54;;;;;;;12.57;2.70;;;30.10;45.50;;;;;;10397908;28;20139;-29
2022/08/07 19:25:57;;;;;;;7.22;2.53;;;30.10;45.60;;;;;;10396962;28;21764;-27
2022/08/07 19:31:11;;;;;;;7.95;2.33;;;30.10;45.80;;;;;;10397719;28;20060;-29
2022/08/07 19:36:16;;;;;;;5.90;1.98;;;30.00;45.90;;;;;;10395061;28;20112;-27
2022/08/07 19:41:23;;;;;;;5.65;2.05;;;30.00;46.00;;;;;;10394718;28;20140;-29
2022/08/07 19:46:31;;;;;;;4.45;1.77;;;30.00;46.10;;;;;;10394487;28;20044;-31
2022/08/07 19:51:36;;;;;;;6.78;2.08;;;30.00;46.20;;;;;;10395184;28;20084;-27
2022/08/07 19:56:42;;;;;;;4.97;1.55;;;29.90;46.20;;;;;;10390372;28;20080;-31
2022/08/07 20:01:46;;;;;;;3.35;1.40;;;30.00;46.10;;;;;;10396978;28;20567;-28
2022/08/07 20:06:52;;;;;;;3.78;1.35;;;29.90;46.00;;;;;;10392552;28;20075;-32
2022/08/07 20:11:56;;;;;;;3.53;1.45;;;30.00;46.00;;;;;;10396490;28;20045;-27
2022/08/07 20:16:59;;;;;;;2.42;1.73;;;29.90;45.80;;;;;;10394460;28;20045;-31
2022/08/07 20:22:07;;;;;;;4.60;1.42;;;29.90;45.90;;;;;;10395969;28;20145;-29
2022/08/07 20:27:12;;;;;;;3.45;1.83;;;29.90;45.90;;;;;;10394304;28;20493;-28
2022/08/07 20:32:19;;;;;;;2.67;1.35;;;29.90;45.90;;;;;;10394305;28;20041;-31
2022/08/07 20:37:24;;;;;;;2.17;1.33;;;29.90;45.80;;;;;;10395650;28;20124;-26
2022/08/07 20:42:29;;;;;;;1.75;1.05;;;29.80;45.80;;;;;;10391072;28;20107;-27
2022/08/07 20:47:35;;;;;;;2.08;1.10;;;29.80;45.90;;;;;;10395100;28;20038;-31
2022/08/07 20:52:38;;;;;;;2.78;1.77;;;29.80;45.90;;;;;;10392727;28;20398;-27
2022/08/07 20:57:44;;;;;;;1.48;1.08;;;29.70;45.80;;;;;;10391863;28;20111;-37
2022/08/07 21:03:00;;;;;;;2.50;1.10;;;29.70;45.90;;;;;;10390632;28;20515;-30
2022/08/07 21:08:07;;;;;;;2.72;1.35;;;29.60;45.80;;;;;;10394227;28;20069;-26
2022/08/07 21:13:17;;;;;;;4.10;1.00;;;29.60;45.80;;;;;;10389263;28;20136;-29
2022/08/07 21:18:24;;;;;;;4.47;1.40;;;29.60;45.80;;;;;;10394862;28;20080;-36
2022/08/07 21:23:37;;;;;;;1.35;1.15;;;29.60;45.80;;;;;;10403495;28;20037;-31
2022/08/07 21:28:47;;;;;;;1.67;1.00;;;29.50;45.80;;;;;;10406429;28;20041;-28
2022/08/07 21:33:54;;;;;;;2.33;1.20;;;29.50;45.90;;;;;;10404571;28;20132;-28
2022/08/07 21:39:08;;;;;;;3.13;1.00;;;29.50;45.70;;;;;;10404088;28;20060;-31
2022/08/07 21:44:15;;;;;;;1.75;1.05;;;29.50;45.90;;;;;;10393274;28;20454;-29
2022/08/07 21:49:25;;;;;;;2.45;1.35;;;29.40;45.80;;;;;;10392604;28;20147;-29
2022/08/07 21:54:41;;;;;;;3.40;1.10;;;29.30;45.80;;;;;;10401312;28;20051;-33
2022/08/07 21:59:57;;;;;;;1.88;1.02;;;29.30;45.90;;;;;;10403437;28;20056;-31
2022/08/07 22:05:02;;;;;;;1.17;0.88;;;29.20;45.90;;;;;;10403430;28;20042;-30
2022/08/07 22:10:06;;;;;;;1.10;1.00;;;29.20;45.90;;;;;;10393632;28;20697;-30
2022/08/07 22:15:15;;;;;;;1.55;1.00;;;29.20;46.00;;;;;;10397256;28;20045;-35
2022/08/07 22:20:20;;;;;;;1.67;0.85;;;29.10;45.90;;;;;;10401683;28;20398;-29
2022/08/07 22:25:33;;;;;;;3.67;1.27;;;29.10;45.90;;;;;;10401855;28;20073;-32
2022/08/07 22:30:45;;;;;;;1.75;1.25;;;29.10;46.00;;;;;;10398753;28;20462;-27
2022/08/07 22:35:54;;;;;;;1.50;1.10;;;29.00;45.90;;;;;;10399519;28;20099;-38
2022/08/07 22:41:01;;;;;;;1.83;1.20;;;29.00;46.00;;;;;;10399087;28;20053;-34
2022/08/07 22:46:29;;;;;;;2.78;1.40;;;29.00;46.10;;;;;;10397454;28;20124;-31
2022/08/07 22:51:47;;;;;;;2.15;1.45;;;28.90;46.10;;;;;;10400013;28;20077;-31
2022/08/07 22:56:59;;;;;;;1.60;1.15;;;28.80;46.20;;;;;;10399900;28;20347;-31
2022/08/07 23:02:29;;;;;;;3.60;1.40;;;28.70;46.30;;;;;;10401147;28;20037;-30
2022/08/07 23:07:49;;;;;;;3.73;1.20;;;28.60;46.10;;;;;;10396883;28;20048;-29
2022/08/07 23:13:07;;;;;;;3.92;1.30;;;28.60;46.00;;;;;;10396360;28;20061;-35
2022/08/07 23:18:23;;;;;;;5.68;1.55;;;28.50;46.00;;;;;;10398639;28;20124;-28
2022/08/07 23:23:46;;;;;;;2.60;1.45;;;28.50;46.10;;;;;;10399796;28;20089;-28
2022/08/07 23:29:08;;;;;;;2.55;1.30;;;28.40;46.10;;;;;;10398326;28;20071;-34
2022/08/07 23:34:29;;;;;;;3.70;1.75;;;28.40;46.00;;;;;;10396740;28;20041;-27
2022/08/07 23:39:41;;;;;;;2.95;1.20;;;28.40;46.00;;;;;;10394789;28;20694;-35
2022/08/07 23:45:10;;;;;;;3.53;1.50;;;28.30;45.90;;;;;;10395399;28;20061;-34
2022/08/07 23:50:42;;;;;;;2.08;1.52;;;28.30;46.00;;;;;;10398478;28;20470;-30
2022/08/07 23:55:54;;;;;;;2.67;1.30;;;28.20;45.90;;;;;;10391594;28;20061;-27
